createdAt,value
2023-09-03T00:01:36.288Z,14.56
2023-09-03T00:04:05.559Z,14.48
2023-09-03T00:06:34.257Z,14.51
2023-09-03T00:09:04.233Z,14.49
2023-09-03T00:11:34.387Z,14.49
2023-09-03T00:14:03.639Z,14.43
2023-09-03T00:16:32.379Z,14.42
2023-09-03T00:19:01.125Z,14.47
2023-09-03T00:21:29.873Z,14.41
2023-09-03T00:23:58.552Z,14.41
2023-09-03T00:26:28.759Z,14.49
2023-09-03T00:29:03.086Z,14.44
2023-09-03T00:31:31.774Z,14.43
2023-09-03T00:34:00.655Z,14.42
2023-09-03T00:36:29.406Z,14.41
2023-09-03T00:38:59.636Z,14.41
2023-09-03T00:41:29.250Z,14.37
2023-09-03T00:43:58.055Z,14.36
2023-09-03T00:46:28.291Z,14.32
2023-09-03T00:48:57.217Z,14.28
2023-09-03T00:51:26.435Z,14.26
2023-09-03T00:53:58.544Z,14.22
2023-09-03T00:56:28.343Z,14.20
2023-09-03T00:58:58.125Z,14.15
2023-09-03T01:01:31.742Z,14.15
2023-09-03T01:04:00.582Z,14.15
2023-09-03T01:06:29.699Z,14.15
2023-09-03T01:08:58.391Z,14.11
2023-09-03T01:11:38.254Z,14.06
2023-09-03T01:14:23.214Z,14.07
2023-09-03T01:17:03.190Z,14.02
2023-09-03T01:19:59.054Z,14.02
2023-09-03T01:22:48.528Z,14.01
2023-09-03T01:25:41.001Z,13.99
2023-09-03T01:28:24.684Z,13.92
2023-09-03T01:31:00.214Z,13.90
2023-09-03T01:33:31.986Z,13.90
2023-09-03T01:36:01.702Z,13.90
2023-09-03T01:38:30.733Z,13.91
2023-09-03T01:41:00.675Z,13.89
2023-09-03T01:43:33.519Z,13.89
2023-09-03T01:46:08.668Z,13.87
2023-09-03T01:49:11.840Z,13.80
2023-09-03T01:51:46.896Z,13.78
2023-09-03T01:54:23.494Z,13.77
2023-09-03T01:57:01.197Z,13.73
2023-09-03T01:59:40.744Z,13.71
2023-09-03T02:02:10.972Z,13.70
2023-09-03T02:04:39.877Z,13.67
2023-09-03T02:07:08.943Z,13.62
2023-09-03T02:09:37.701Z,13.64
2023-09-03T02:12:09.855Z,13.62
2023-09-03T02:14:40.529Z,13.65
2023-09-03T02:17:10.417Z,13.62
2023-09-03T02:19:39.404Z,13.59
2023-09-03T02:22:08.391Z,13.58
2023-09-03T02:24:37.053Z,13.55
2023-09-03T02:27:09.714Z,13.52
2023-09-03T02:29:40.793Z,13.47
2023-09-03T02:32:09.767Z,13.44
2023-09-03T02:34:39.709Z,13.42
2023-09-03T02:37:11.468Z,13.45
2023-09-03T02:39:43.433Z,13.42
2023-09-03T02:42:12.189Z,13.41
2023-09-03T02:44:42.953Z,13.43
2023-09-03T02:47:12.004Z,13.41
2023-09-03T02:49:40.695Z,13.42
2023-09-03T02:52:10.100Z,13.44
2023-09-03T02:54:38.891Z,13.41
2023-09-03T02:57:07.591Z,13.40
2023-09-03T02:59:36.212Z,13.41
2023-09-03T03:02:06.585Z,13.39
2023-09-03T03:04:35.305Z,13.40
2023-09-03T03:07:04.091Z,13.41
2023-09-03T03:09:32.729Z,13.45
2023-09-03T03:12:01.524Z,13.46
2023-09-03T03:14:32.500Z,13.49
2023-09-03T03:17:02.755Z,13.53
2023-09-03T03:19:33.283Z,13.52
2023-09-03T03:22:02.313Z,13.48
2023-09-03T03:24:31.025Z,13.48
2023-09-03T03:26:59.918Z,13.52
2023-09-03T03:29:29.750Z,13.53
2023-09-03T03:32:00.053Z,13.57
2023-09-03T03:34:30.072Z,13.55
2023-09-03T03:37:02.066Z,13.58
2023-09-03T03:39:30.858Z,13.62
2023-09-03T03:41:59.637Z,13.63
2023-09-03T03:44:28.363Z,13.59
2023-09-03T03:46:57.180Z,13.62
2023-09-03T03:49:26.017Z,13.62
2023-09-03T03:51:55.320Z,13.62
2023-09-03T03:54:25.482Z,13.67
2023-09-03T03:56:54.465Z,13.67
2023-09-03T03:59:25.898Z,13.73
2023-09-03T04:01:54.609Z,13.81
2023-09-03T04:04:23.612Z,13.87
2023-09-03T04:06:52.289Z,13.95
2023-09-03T04:09:21.126Z,13.97
2023-09-03T04:11:51.218Z,14.06
2023-09-03T04:14:20.437Z,14.16
2023-09-03T04:16:49.318Z,14.20
2023-09-03T04:19:18.091Z,14.34
2023-09-03T04:21:46.822Z,14.38
2023-09-03T04:24:15.648Z,14.37
2023-09-03T04:26:44.460Z,14.45
2023-09-03T04:29:14.571Z,14.39
2023-09-03T04:31:43.249Z,14.45
2023-09-03T04:34:13.873Z,14.44
2023-09-03T04:36:43.283Z,14.45
2023-09-03T04:39:12.939Z,14.43
2023-09-03T04:41:42.688Z,14.53
2023-09-03T04:44:14.913Z,14.53
2023-09-03T04:46:47.433Z,14.55
2023-09-03T04:49:16.266Z,14.63
2023-09-03T04:51:49.723Z,14.67
2023-09-03T04:54:19.227Z,14.63
2023-09-03T04:56:51.304Z,14.67
2023-09-03T04:59:21.501Z,14.76
2023-09-03T05:01:50.864Z,14.78
2023-09-03T05:04:19.572Z,14.90
2023-09-03T05:06:50.348Z,14.95
2023-09-03T05:09:22.537Z,15.07
2023-09-03T05:11:52.194Z,15.11
2023-09-03T05:14:23.075Z,15.11
2023-09-03T05:16:52.262Z,15.07
2023-09-03T05:19:21.569Z,15.09
2023-09-03T05:21:50.501Z,15.07
2023-09-03T05:24:20.072Z,15.13
2023-09-03T05:26:50.813Z,15.19
2023-09-03T05:29:21.111Z,15.29
2023-09-03T05:31:50.068Z,15.31
2023-09-03T05:34:19.448Z,15.42
2023-09-03T05:36:48.746Z,15.57
2023-09-03T05:39:19.092Z,15.70
2023-09-03T05:41:47.918Z,15.81
2023-09-03T05:44:17.299Z,15.87
2023-09-03T05:46:48.284Z,15.86
2023-09-03T05:49:17.239Z,15.85
2023-09-03T05:51:46.792Z,15.90
2023-09-03T05:54:16.400Z,15.96
2023-09-03T05:56:45.136Z,15.97
2023-09-03T05:59:15.533Z,16.00
2023-09-03T06:01:44.305Z,15.98
2023-09-03T06:04:18.563Z,15.97
2023-09-03T06:06:48.732Z,16.02
2023-09-03T06:09:20.054Z,16.00
2023-09-03T06:11:49.672Z,16.00
2023-09-03T06:14:19.512Z,16.00
2023-09-03T06:16:51.213Z,16.00
2023-09-03T06:19:22.042Z,16.05
2023-09-03T06:21:50.996Z,16.20
2023-09-03T06:24:19.851Z,16.36
2023-09-03T06:26:49.404Z,16.54
2023-09-03T06:29:18.185Z,16.69
2023-09-03T06:31:47.127Z,16.89
2023-09-03T06:34:17.192Z,17.04
2023-09-03T06:36:47.451Z,17.08
2023-09-03T06:39:17.251Z,17.00
2023-09-03T06:41:46.036Z,17.08
2023-09-03T06:44:17.681Z,17.19
2023-09-03T06:46:46.917Z,17.37
2023-09-03T06:49:15.844Z,17.48
2023-09-03T06:51:45.992Z,17.57
2023-09-03T06:54:19.557Z,17.70
2023-09-03T06:56:48.392Z,17.74
2023-09-03T06:59:33.490Z,17.81
2023-09-03T07:02:04.020Z,17.84
2023-09-03T07:04:34.058Z,17.94
2023-09-03T07:07:06.943Z,18.05
2023-09-03T07:09:37.650Z,18.14
2023-09-03T07:12:14.029Z,18.21
2023-09-03T07:14:44.544Z,18.20
2023-09-03T07:17:13.478Z,18.23
2023-09-03T07:19:42.932Z,18.28
2023-09-03T07:22:14.982Z,18.45
2023-09-03T07:24:47.763Z,18.61
2023-09-03T07:27:16.484Z,18.67
2023-09-03T07:29:45.350Z,18.82
2023-09-03T07:32:15.235Z,19.01
2023-09-03T07:34:44.642Z,19.10
2023-09-03T07:37:15.931Z,19.26
2023-09-03T07:39:50.022Z,19.43
2023-09-03T07:42:18.800Z,19.41
2023-09-03T07:44:47.809Z,19.39
2023-09-03T07:47:16.719Z,19.42
2023-09-03T07:49:48.158Z,19.44
2023-09-03T07:52:17.469Z,19.38
2023-09-03T07:54:46.757Z,19.47
2023-09-03T07:57:17.190Z,19.66
2023-09-03T07:59:46.398Z,19.83
2023-09-03T08:02:17.865Z,19.98
2023-09-03T08:04:48.406Z,20.09
2023-09-03T08:07:21.800Z,20.17
2023-09-03T08:09:52.640Z,20.21
2023-09-03T08:12:25.539Z,20.40
2023-09-03T08:14:56.516Z,20.43
2023-09-03T08:17:27.687Z,20.52
2023-09-03T08:20:10.535Z,20.55
2023-09-03T08:22:42.442Z,20.67
2023-09-03T08:25:12.861Z,20.75
2023-09-03T08:27:43.275Z,20.68
2023-09-03T08:30:13.236Z,20.66
2023-09-03T08:32:42.365Z,20.70
2023-09-03T08:35:14.690Z,20.68
2023-09-03T08:37:43.854Z,20.62
2023-09-03T08:40:14.648Z,20.64
2023-09-03T08:42:49.907Z,20.59
2023-09-03T08:45:19.656Z,20.61
2023-09-03T08:47:49.371Z,20.53
2023-09-03T08:50:18.882Z,20.63
2023-09-03T08:52:50.743Z,20.71
2023-09-03T08:55:26.390Z,20.83
2023-09-03T08:57:58.965Z,20.95
2023-09-03T09:00:37.038Z,20.90
2023-09-03T09:03:18.390Z,20.89
2023-09-03T09:05:51.064Z,20.79
2023-09-03T09:08:20.433Z,20.79
2023-09-03T09:10:54.500Z,20.87
2023-09-03T09:13:33.043Z,20.78
2023-09-03T09:16:05.704Z,20.80
2023-09-03T09:18:34.468Z,20.62
2023-09-03T09:21:05.337Z,20.52
2023-09-03T09:23:34.346Z,20.43
2023-09-03T09:26:03.313Z,20.38
2023-09-03T09:28:33.696Z,20.30
2023-09-03T09:31:03.317Z,20.47
2023-09-03T09:33:37.363Z,20.57
2023-09-03T09:36:15.645Z,20.81
2023-09-03T09:38:45.457Z,20.89
2023-09-03T09:41:25.484Z,21.07
2023-09-03T09:43:56.008Z,21.28
2023-09-03T09:46:35.626Z,21.45
2023-09-03T09:49:13.102Z,21.38
2023-09-03T09:52:09.541Z,21.58
2023-09-03T09:54:42.164Z,21.78
2023-09-03T09:57:16.723Z,21.75
2023-09-03T09:59:53.991Z,21.65
2023-09-03T10:02:24.360Z,21.49
2023-09-03T10:04:55.577Z,21.54
2023-09-03T10:07:27.086Z,21.57
2023-09-03T10:09:55.869Z,21.52
2023-09-03T10:12:27.462Z,21.43
2023-09-03T10:14:57.585Z,21.40
2023-09-03T10:17:28.664Z,21.37
2023-09-03T10:20:06.176Z,21.35
2023-09-03T10:22:41.590Z,21.29
2023-09-03T10:25:15.332Z,21.52
2023-09-03T10:27:52.070Z,21.62
2023-09-03T10:30:38.030Z,21.78
2023-09-03T10:33:30.201Z,21.80
2023-09-03T10:36:16.353Z,21.70
2023-09-03T10:38:46.877Z,21.66
2023-09-03T10:41:24.340Z,21.72
2023-09-03T10:43:56.632Z,21.83
2023-09-03T10:46:28.695Z,21.80
2023-09-03T10:49:01.135Z,21.74
2023-09-03T10:51:36.055Z,21.79
2023-09-03T10:54:26.817Z,22.01
2023-09-03T10:57:21.548Z,22.02
2023-09-03T11:00:22.447Z,22.05
2023-09-03T11:03:01.433Z,22.32
2023-09-03T11:05:33.949Z,22.48
2023-09-03T11:08:31.039Z,22.61
2023-09-03T11:11:03.105Z,22.77
2023-09-03T11:13:39.035Z,22.96
2023-09-03T11:16:08.235Z,22.92
2023-09-03T11:18:38.851Z,22.92
2023-09-03T11:21:08.483Z,22.77
2023-09-03T11:23:37.323Z,22.74
2023-09-03T11:26:14.279Z,22.86
2023-09-03T11:28:47.316Z,22.99
2023-09-03T11:31:17.323Z,23.13
2023-09-03T11:33:47.868Z,23.07
2023-09-03T11:36:16.819Z,22.96
2023-09-03T11:38:45.753Z,23.00
2023-09-03T11:41:22.966Z,22.97
2023-09-03T11:43:54.998Z,22.97
2023-09-03T11:46:28.266Z,23.03
2023-09-03T11:49:18.857Z,23.07
2023-09-03T11:51:47.788Z,22.92
2023-09-03T11:54:25.393Z,22.79
2023-09-03T11:57:02.093Z,22.76
2023-09-03T12:02:24.072Z,22.88
2023-09-03T12:04:54.672Z,22.90
2023-09-03T12:07:23.513Z,22.77
2023-09-03T12:09:52.716Z,22.79
2023-09-03T12:12:21.856Z,22.75
2023-09-03T12:14:53.176Z,22.69
2023-09-03T12:17:25.168Z,22.81
2023-09-03T12:19:57.250Z,22.99
2023-09-03T12:22:26.754Z,23.04
2023-09-03T12:24:57.147Z,23.01
2023-09-03T12:27:37.739Z,23.01
2023-09-03T12:30:16.078Z,22.91
2023-09-03T12:32:46.713Z,22.86
2023-09-03T12:35:21.638Z,22.87
2023-09-03T12:37:50.490Z,22.95
2023-09-03T12:40:25.162Z,23.07
2023-09-03T12:42:54.277Z,23.12
2023-09-03T12:45:27.094Z,22.99
2023-09-03T12:48:02.150Z,22.95
2023-09-03T12:50:39.901Z,22.84
2023-09-03T12:53:15.962Z,22.88
2023-09-03T12:55:48.310Z,22.88
2023-09-03T12:58:18.501Z,23.03
2023-09-03T13:00:48.258Z,23.06
2023-09-03T13:03:17.301Z,22.99
2023-09-03T13:05:47.865Z,23.09
2023-09-03T13:08:17.083Z,23.07
2023-09-03T13:10:45.842Z,23.17
2023-09-03T13:13:14.715Z,23.20
2023-09-03T13:15:43.520Z,23.27
2023-09-03T13:18:12.344Z,23.24
2023-09-03T13:20:41.309Z,23.41
2023-09-03T13:23:11.835Z,23.63
2023-09-03T13:25:41.269Z,23.72
2023-09-03T13:28:11.297Z,23.69
2023-09-03T13:30:45.213Z,23.72
2023-09-03T13:33:22.885Z,23.71
2023-09-03T13:35:54.560Z,23.75
2023-09-03T13:38:25.849Z,23.67
2023-09-03T13:40:56.049Z,23.61
2023-09-03T13:43:26.530Z,23.42
2023-09-03T13:45:55.876Z,23.25
2023-09-03T13:48:25.258Z,23.10
2023-09-03T13:50:55.783Z,22.93
2023-09-03T13:53:26.312Z,22.87
2023-09-03T13:55:55.446Z,22.80
2023-09-03T13:58:24.512Z,22.71
2023-09-03T14:00:53.426Z,22.66
2023-09-03T14:03:22.400Z,22.59
2023-09-03T14:05:51.348Z,22.53
2023-09-03T14:08:20.056Z,22.44
2023-09-03T14:10:59.634Z,22.39
2023-09-03T14:13:29.615Z,22.31
2023-09-03T14:15:58.411Z,22.20
2023-09-03T14:18:29.142Z,22.10
2023-09-03T14:20:58.371Z,22.01
2023-09-03T14:23:28.195Z,21.99
2023-09-03T14:25:59.669Z,21.95
2023-09-03T14:28:28.588Z,21.90
2023-09-03T14:31:02.155Z,21.82
2023-09-03T14:33:31.007Z,21.69
2023-09-03T14:36:01.528Z,21.61
2023-09-03T14:38:30.381Z,21.54
2023-09-03T14:41:00.872Z,21.48
2023-09-03T14:43:29.571Z,21.36
2023-09-03T14:46:02.149Z,21.30
2023-09-03T14:48:31.072Z,21.17
2023-09-03T14:50:59.967Z,21.13
2023-09-03T14:53:28.761Z,21.10
2023-09-03T14:56:00.530Z,21.09
2023-09-03T14:58:30.021Z,21.06
2023-09-03T15:01:03.963Z,21.04
2023-09-03T15:03:35.397Z,20.98
2023-09-03T15:06:04.883Z,20.80
2023-09-03T15:08:39.189Z,20.80
2023-09-03T15:11:14.862Z,20.68
2023-09-03T15:13:48.367Z,20.70
2023-09-03T15:16:27.156Z,20.67
2023-09-03T15:19:00.582Z,20.68
2023-09-03T15:21:39.645Z,20.62
2023-09-03T15:24:12.656Z,20.53
2023-09-03T15:26:43.006Z,20.43
2023-09-03T15:29:11.709Z,20.41
2023-09-03T15:31:43.859Z,20.30
2023-09-03T15:34:29.295Z,20.24
2023-09-03T15:36:58.043Z,20.18
2023-09-03T15:40:02.748Z,20.12
2023-09-03T15:42:37.188Z,20.01
2023-09-03T15:45:07.379Z,19.63
2023-09-03T15:47:51.279Z,19.45
2023-09-03T15:50:20.876Z,19.28
2023-09-03T15:52:49.641Z,19.14
2023-09-03T15:55:18.694Z,19.02
2023-09-03T15:57:49.679Z,18.87
2023-09-03T16:00:21.334Z,18.91
2023-09-03T16:02:50.402Z,18.92
2023-09-03T16:05:19.519Z,18.90
2023-09-03T16:07:48.894Z,18.87
2023-09-03T16:10:17.879Z,18.84
2023-09-03T16:12:49.833Z,18.87
2023-09-03T16:15:18.981Z,18.97
2023-09-03T16:17:47.800Z,19.13
2023-09-03T16:20:16.622Z,19.23
2023-09-03T16:22:45.433Z,19.44
2023-09-03T16:25:14.188Z,19.55
2023-09-03T16:27:43.508Z,19.77
2023-09-03T16:30:15.317Z,19.95
2023-09-03T16:32:48.706Z,19.95
2023-09-03T16:35:17.751Z,19.93
2023-09-03T16:37:46.741Z,19.86
2023-09-03T16:40:19.075Z,19.68
2023-09-03T16:42:54.333Z,19.45
2023-09-03T16:45:31.734Z,19.37
2023-09-03T16:48:02.663Z,19.25
2023-09-03T16:50:38.321Z,19.14
2023-09-03T16:53:09.369Z,19.01
2023-09-03T16:55:47.397Z,18.93
2023-09-03T16:58:16.130Z,18.86
2023-09-03T17:00:47.562Z,18.84
2023-09-03T17:03:26.933Z,18.79
2023-09-03T17:06:00.841Z,18.73
2023-09-03T17:08:30.057Z,18.63
2023-09-03T17:11:03.263Z,18.52
2023-09-03T17:13:32.748Z,18.46
2023-09-03T17:16:02.961Z,18.36
2023-09-03T17:18:32.229Z,18.30
2023-09-03T17:21:00.928Z,18.21
2023-09-03T17:23:29.741Z,18.22
2023-09-03T17:25:58.560Z,18.19
2023-09-03T17:28:28.356Z,18.11
2023-09-03T17:31:03.802Z,18.02
2023-09-03T17:33:33.009Z,17.94
2023-09-03T17:36:05.043Z,17.90
2023-09-03T17:38:34.201Z,17.85
2023-09-03T17:41:02.885Z,17.79
2023-09-03T17:43:33.944Z,17.72
2023-09-03T17:46:04.186Z,17.67
2023-09-03T17:48:33.114Z,17.59
2023-09-03T17:51:02.113Z,17.51
2023-09-03T17:53:33.038Z,17.47
2023-09-03T17:56:01.824Z,17.43
2023-09-03T17:58:30.863Z,17.38
2023-09-03T18:01:01.990Z,17.35
2023-09-03T18:03:32.499Z,17.28
2023-09-03T18:06:01.338Z,17.23
2023-09-03T18:08:31.151Z,17.15
2023-09-03T18:10:59.846Z,17.09
2023-09-03T18:13:28.877Z,17.03
2023-09-03T18:16:00.967Z,17.02
2023-09-03T18:18:38.922Z,16.97
2023-09-03T18:21:09.798Z,16.88
2023-09-03T18:23:39.848Z,16.84
2023-09-03T18:26:10.354Z,16.78
2023-09-03T18:28:42.715Z,16.79
2023-09-03T18:31:13.366Z,16.69
2023-09-03T18:33:43.956Z,16.65
2023-09-03T18:36:15.017Z,16.63
2023-09-03T18:38:47.282Z,16.49
2023-09-03T18:41:16.984Z,16.45
2023-09-03T18:43:47.244Z,16.42
2023-09-03T18:46:16.147Z,16.35
2023-09-03T18:48:46.326Z,16.32
2023-09-03T18:51:15.423Z,16.27
2023-09-03T18:53:44.109Z,16.28
2023-09-03T18:56:12.972Z,16.22
2023-09-03T18:58:41.851Z,16.21
2023-09-03T19:01:11.663Z,16.21
2023-09-03T19:03:40.742Z,16.18
2023-09-03T19:06:18.213Z,16.14
2023-09-03T19:08:47.283Z,16.09
2023-09-03T19:11:16.172Z,16.05
2023-09-03T19:13:44.988Z,15.97
2023-09-03T19:16:20.871Z,15.95
2023-09-03T19:18:50.946Z,15.93
2023-09-03T19:21:21.034Z,15.87
2023-09-03T19:23:50.215Z,15.87
2023-09-03T19:26:20.583Z,15.83
2023-09-03T19:28:49.985Z,15.79
2023-09-03T19:31:19.044Z,15.79
2023-09-03T19:33:48.300Z,15.76
2023-09-03T19:36:17.772Z,15.74
2023-09-03T19:38:48.276Z,15.74
2023-09-03T19:41:20.358Z,15.71
2023-09-03T19:43:49.181Z,15.65
2023-09-03T19:46:18.153Z,15.63
2023-09-03T19:48:48.399Z,15.61
2023-09-03T19:51:17.156Z,15.58
2023-09-03T19:53:53.690Z,15.53
2023-09-03T19:56:23.878Z,15.49
2023-09-03T19:58:53.000Z,15.46
2023-09-03T20:01:21.930Z,15.39
2023-09-03T20:03:51.089Z,15.35
2023-09-03T20:06:21.190Z,15.32
2023-09-03T20:08:51.798Z,15.28
2023-09-03T20:11:20.690Z,15.28
2023-09-03T20:13:53.695Z,15.26
2023-09-03T20:16:22.664Z,15.21
2023-09-03T20:18:52.634Z,15.16
2023-09-03T20:21:21.383Z,15.18
2023-09-03T20:23:51.652Z,15.13
2023-09-03T20:26:20.666Z,15.09
2023-09-03T20:28:49.690Z,15.09
2023-09-03T20:31:18.791Z,15.04
2023-09-03T20:33:47.761Z,15.06
2023-09-03T20:36:16.601Z,15.04
2023-09-03T20:38:45.379Z,15.00
2023-09-03T20:41:17.030Z,14.98
2023-09-03T20:43:45.734Z,14.90
2023-09-03T20:46:14.492Z,14.92
2023-09-03T20:48:43.352Z,14.88
2023-09-03T20:51:12.151Z,14.88
2023-09-03T20:53:41.192Z,14.86
2023-09-03T20:56:10.051Z,14.85
2023-09-03T20:58:40.349Z,14.79
2023-09-03T21:01:15.664Z,14.79
2023-09-03T21:03:44.673Z,14.77
2023-09-03T21:06:13.355Z,14.69
2023-09-03T21:08:42.096Z,14.63
2023-09-03T21:11:10.792Z,14.58
2023-09-03T21:13:40.948Z,14.55
2023-09-03T21:16:09.678Z,14.55
2023-09-03T21:18:38.476Z,14.51
2023-09-03T21:21:08.062Z,14.53
2023-09-03T21:23:37.412Z,14.53
2023-09-03T21:26:15.116Z,14.46
2023-09-03T21:28:45.393Z,14.35
2023-09-03T21:31:19.358Z,14.42
2023-09-03T21:33:48.792Z,14.39
2023-09-03T21:36:19.592Z,14.34
2023-09-03T21:38:48.964Z,14.30
2023-09-03T21:41:18.150Z,14.20
2023-09-03T21:43:52.759Z,14.22
2023-09-03T21:46:21.968Z,14.22
2023-09-03T21:48:51.364Z,14.21
2023-09-03T21:51:21.252Z,14.25
2023-09-03T21:53:50.456Z,14.22
2023-09-03T21:56:19.126Z,14.20
2023-09-03T21:58:49.563Z,14.22
2023-09-03T22:01:18.447Z,14.22
2023-09-03T22:03:49.009Z,14.19
2023-09-03T22:06:18.118Z,14.18
2023-09-03T22:08:47.830Z,14.16
2023-09-03T22:11:17.030Z,14.11
2023-09-03T22:13:45.773Z,14.11
2023-09-03T22:16:17.450Z,14.07
2023-09-03T22:18:55.974Z,14.04
2023-09-03T22:21:26.199Z,14.06
2023-09-03T22:23:54.903Z,14.02
2023-09-03T22:26:23.720Z,13.99
2023-09-03T22:28:54.678Z,13.93
2023-09-03T22:31:24.832Z,13.97
2023-09-03T22:33:53.746Z,13.89
2023-09-03T22:36:22.483Z,13.88
2023-09-03T22:38:51.147Z,13.85
2023-09-03T22:41:19.817Z,13.78
2023-09-03T22:43:48.570Z,13.72
2023-09-03T22:46:17.645Z,13.69
2023-09-03T22:48:48.067Z,13.69
2023-09-03T22:51:16.787Z,13.65
2023-09-03T22:53:45.533Z,13.67
2023-09-03T22:56:14.250Z,13.69
2023-09-03T22:58:42.940Z,13.65
2023-09-03T23:01:11.747Z,13.65
2023-09-03T23:03:40.961Z,13.58
2023-09-03T23:06:11.060Z,13.54
2023-09-03T23:08:39.777Z,13.50
2023-09-03T23:11:08.534Z,13.43
2023-09-03T23:13:37.177Z,13.41
2023-09-03T23:16:06.604Z,13.36
2023-09-03T23:18:35.334Z,13.32
2023-09-03T23:21:10.608Z,13.30
2023-09-03T23:23:41.205Z,13.28
2023-09-03T23:26:10.314Z,13.24
2023-09-03T23:28:39.089Z,13.24
2023-09-03T23:31:07.815Z,13.21
2023-09-03T23:33:37.610Z,13.18
2023-09-03T23:36:07.054Z,13.14
2023-09-03T23:38:35.710Z,13.13
2023-09-03T23:41:05.918Z,13.04
2023-09-03T23:43:34.784Z,12.99
2023-09-03T23:46:03.877Z,12.97
2023-09-03T23:48:32.657Z,12.89
2023-09-03T23:51:01.771Z,12.95
2023-09-03T23:53:30.610Z,12.86
2023-09-03T23:55:59.998Z,12.85
2023-09-03T23:58:31.389Z,12.81
